Time;durP1;ratioP1;P1;durP2;ratioP2;P2;SDS_P1;SDS_P2;PMS_P1;PMS_P2;Temp;Humidity;BMP_temperature;BMP_pressure;BME280_temperature;BME280_humidity;BME280_pressure;Samples;Min_cycle;Max_cycle;Signal;HPM_P1;HPM_P2
2023/02/15 00:01:05;;;;;;;1.30;1.20;;;20.20;64.50;;;;;;6214775;23;20004;-68
2023/02/15 00:03:31;;;;;;;1.30;1.20;;;20.20;64.60;;;;;;6214765;23;20008;-67
2023/02/15 00:05:57;;;;;;;1.38;1.27;;;20.20;64.70;;;;;;6214438;23;20000;-68
2023/02/15 00:08:23;;;;;;;1.50;1.40;;;20.20;64.70;;;;;;6214573;23;20500;-68
2023/02/15 00:10:48;;;;;;;5.43;1.30;;;20.20;64.80;;;;;;6214373;23;20036;-68
2023/02/15 00:13:14;;;;;;;1.63;1.20;;;20.20;65.00;;;;;;6214189;23;20000;-68
2023/02/15 00:15:39;;;;;;;2.17;1.20;;;20.30;66.10;;;;;;6214522;23;20000;-68
2023/02/15 00:18:05;;;;;;;3.45;1.20;;;20.20;65.10;;;;;;6214324;23;20572;-68
2023/02/15 00:20:31;;;;;;;1.33;1.23;;;20.20;65.20;;;;;;6214522;23;20032;-67
2023/02/15 00:22:56;;;;;;;1.40;1.20;;;20.20;65.30;;;;;;6214598;23;19996;-68
2023/02/15 00:25:22;;;;;;;1.40;1.30;;;20.20;65.30;;;;;;6212709;23;20001;-68
2023/02/15 00:27:48;;;;;;;1.38;1.27;;;20.30;65.40;;;;;;6213702;23;20012;-68
2023/02/15 00:30:13;;;;;;;1.50;1.40;;;20.20;65.40;;;;;;6214503;23;20004;-68
2023/02/15 00:32:39;;;;;;;1.38;1.27;;;20.20;65.40;;;;;;6214426;23;20311;-68
2023/02/15 00:35:06;;;;;;;2.35;1.35;;;20.30;65.50;;;;;;6214396;23;20011;-68
2023/02/15 00:37:32;;;;;;;1.40;1.30;;;20.30;65.50;;;;;;6212772;23;20014;-68
2023/02/15 00:39:57;;;;;;;1.95;1.25;;;20.30;65.50;;;;;;6214036;23;20032;-68
2023/02/15 00:42:23;;;;;;;1.33;1.23;;;20.30;65.40;;;;;;6214393;23;19996;-68
2023/02/15 00:44:49;;;;;;;2.78;1.30;;;20.30;65.50;;;;;;6214335;23;20008;-68
2023/02/15 00:47:14;;;;;;;1.40;1.30;;;20.30;65.50;;;;;;6214290;23;20134;-68
2023/02/15 00:49:40;;;;;;;3.95;1.40;;;20.30;65.50;;;;;;6212778;23;20000;-67
2023/02/15 00:52:06;;;;;;;1.17;1.17;;;20.30;65.50;;;;;;6214318;23;20004;-68
2023/02/15 00:54:31;;;;;;;2.88;1.30;;;20.30;65.50;;;;;;6187593;23;20055;-67
2023/02/15 00:56:57;;;;;;;5.00;1.50;;;20.30;65.60;;;;;;6214396;23;20000;-68
2023/02/15 00:59:22;;;;;;;1.73;1.35;;;20.30;65.60;;;;;;6213979;23;20397;-68
2023/02/15 01:01:48;;;;;;;1.30;1.27;;;20.30;65.70;;;;;;6214589;23;20075;-68
2023/02/15 01:04:14;;;;;;;1.85;1.42;;;20.30;65.70;;;;;;6213051;23;20370;-68
2023/02/15 01:06:39;;;;;;;1.33;1.23;;;20.30;65.70;;;;;;6214391;23;20004;-68
2023/02/15 01:09:05;;;;;;;2.05;1.60;;;20.30;65.70;;;;;;6213983;23;20005;-68
2023/02/15 01:11:30;;;;;;;1.20;1.10;;;20.30;65.70;;;;;;6214463;23;20345;-68
2023/02/15 01:13:57;;;;;;;1.40;1.30;;;20.30;65.70;;;;;;6214350;23;20032;-68
2023/02/15 01:16:23;;;;;;;1.60;1.27;;;20.30;65.70;;;;;;6214076;23;20001;-67
2023/02/15 01:18:49;;;;;;;1.52;1.10;;;20.30;65.80;;;;;;6188384;23;20008;-67
2023/02/15 01:21:18;;;;;;;2.65;1.20;;;20.30;65.80;;;;;;6214212;23;20020;-68
2023/02/15 01:23:43;;;;;;;1.55;1.45;;;20.30;65.90;;;;;;6189305;23;20028;-67
2023/02/15 01:26:09;;;;;;;2.28;1.50;;;20.30;65.90;;;;;;6216007;23;20004;-68
2023/02/15 01:28:35;;;;;;;1.40;1.30;;;20.30;66.00;;;;;;6214353;23;20019;-68
2023/02/15 01:31:16;;;;;;;2.30;1.42;;;20.30;65.90;;;;;;6214719;23;20009;-68
2023/02/15 01:33:42;;;;;;;1.77;1.40;;;20.30;65.90;;;;;;6191008;23;20009;-68
2023/02/15 01:36:08;;;;;;;1.67;1.58;;;20.30;65.90;;;;;;6214558;23;20005;-68
2023/02/15 01:38:34;;;;;;;1.67;1.45;;;20.30;65.90;;;;;;6215449;23;20005;-68
2023/02/15 01:43:46;;;;;;;2.60;1.67;;;20.30;65.90;;;;;;6216046;23;20071;-68
2023/02/15 01:46:12;;;;;;;1.40;1.30;;;20.30;66.00;;;;;;6189781;23;20027;-68
2023/02/15 01:48:42;;;;;;;1.48;1.38;;;20.30;66.00;;;;;;6214341;23;20032;-68
2023/02/15 01:51:07;;;;;;;1.55;1.30;;;20.20;65.90;;;;;;6189661;23;20001;-68
2023/02/15 01:54:08;;;;;;;1.48;1.30;;;20.20;66.00;;;;;;6189201;23;20000;-68
2023/02/15 01:56:35;;;;;;;3.67;1.40;;;20.20;66.00;;;;;;6136304;23;20009;-68
2023/02/15 01:59:06;;;;;;;1.40;1.30;;;20.30;66.10;;;;;;6214285;23;20010;-68
2023/02/15 02:01:31;;;;;;;1.35;1.25;;;20.20;66.10;;;;;;6214196;23;20001;-68
2023/02/15 02:03:57;;;;;;;5.85;1.58;;;20.30;66.10;;;;;;6214286;23;20511;-68
2023/02/15 02:06:23;;;;;;;1.40;1.30;;;20.30;66.00;;;;;;6215622;23;20003;-68
2023/02/15 02:08:49;;;;;;;5.00;1.50;;;20.30;66.10;;;;;;6214050;23;20001;-68
2023/02/15 02:11:15;;;;;;;2.50;1.40;;;20.30;66.00;;;;;;6214115;23;20015;-68
2023/02/15 02:13:41;;;;;;;1.77;1.40;;;20.30;66.10;;;;;;6215696;23;20028;-68
2023/02/15 02:16:15;;;;;;;4.03;1.40;;;20.30;66.00;;;;;;6215595;23;20012;-68
2023/02/15 02:19:18;;;;;;;1.40;1.30;;;20.30;66.00;;;;;;6213916;23;20386;-68
2023/02/15 02:21:55;;;;;;;;;;;20.30;66.00;;;;;;6215942;23;20004;-68
2023/02/15 02:24:46;;;;;;;1.45;1.30;;;20.30;66.00;;;;;;6213920;23;19904;-67
2023/02/15 02:27:30;;;;;;;3.53;1.20;;;20.30;66.10;;;;;;6215255;23;20429;-68
2023/02/15 02:30:28;;;;;;;2.67;1.55;;;20.30;66.00;;;;;;6213992;23;20147;-68
2023/02/15 02:33:15;;;;;;;2.58;1.40;;;20.30;66.00;;;;;;6214560;23;20004;-68
2023/02/15 02:36:26;;;;;;;4.72;1.60;;;20.30;66.00;;;;;;6213585;23;20122;-68
2023/02/15 02:39:06;;;;;;;3.38;1.40;;;20.30;66.00;;;;;;6094229;23;20044;-68
2023/02/15 02:42:12;;;;;;;1.25;1.15;;;20.30;66.00;;;;;;6070114;23;20089;-67
2023/02/15 02:44:45;;;;;;;1.85;1.20;;;20.30;66.00;;;;;;6081712;23;20007;-68
2023/02/15 02:47:28;;;;;;;2.38;1.20;;;20.30;66.00;;;;;;6070840;23;20007;-68
2023/02/15 02:49:59;;;;;;;1.40;1.30;;;20.30;66.00;;;;;;6071871;23;20014;-68
2023/02/15 02:52:44;;;;;;;2.92;1.20;;;20.30;66.00;;;;;;6069774;23;20034;-68
2023/02/15 02:55:18;;;;;;;2.95;1.80;;;20.30;66.10;;;;;;6070781;23;20015;-68
2023/02/15 02:57:51;;;;;;;2.92;1.30;;;20.30;66.00;;;;;;6094097;23;20047;-68
2023/02/15 03:00:17;;;;;;;1.40;1.30;;;20.30;66.00;;;;;;6070665;23;20007;-68
2023/02/15 03:02:43;;;;;;;1.70;1.30;;;20.30;66.20;;;;;;6045949;23;20384;-68
2023/02/15 03:05:15;;;;;;;1.58;1.27;;;20.30;66.20;;;;;;6069804;23;20041;-68
2023/02/15 03:07:40;;;;;;;3.15;1.52;;;20.30;66.20;;;;;;6070948;23;20010;-68
2023/02/15 03:10:06;;;;;;;1.63;1.27;;;20.30;66.20;;;;;;6070143;23;20384;-68
2023/02/15 03:12:34;;;;;;;1.33;1.23;;;20.30;66.20;;;;;;6070017;23;20030;-68
2023/02/15 03:15:01;;;;;;;1.88;1.40;;;20.20;66.10;;;;;;6097820;23;20087;-68
2023/02/15 03:17:28;;;;;;;1.30;1.20;;;20.30;66.20;;;;;;6213068;23;20027;-68
2023/02/15 03:19:55;;;;;;;2.63;1.30;;;20.30;66.20;;;;;;6188507;23;20123;-68
2023/02/15 03:22:23;;;;;;;2.30;1.27;;;20.30;66.30;;;;;;6188718;23;19996;-68
2023/02/15 03:25:03;;;;;;;3.15;1.50;;;20.30;66.20;;;;;;6188295;23;19996;-68
2023/02/15 03:27:33;;;;;;;2.85;1.98;;;20.30;65.90;;;;;;6212851;23;20012;-68
2023/02/15 03:29:59;;;;;;;2.88;1.50;;;20.20;65.60;;;;;;6187815;23;20027;-67
2023/02/15 03:32:25;;;;;;;1.60;1.50;;;20.20;65.40;;;;;;6212341;23;19996;-68
2023/02/15 03:34:51;;;;;;;1.77;1.27;;;20.20;65.30;;;;;;6213923;23;20001;-68
2023/02/15 03:37:32;;;;;;;1.50;1.40;;;20.10;65.30;;;;;;6187589;23;20001;-68
2023/02/15 03:43:00;;;;;;;2.90;1.50;;;20.10;65.40;;;;;;6191974;23;20008;-68
2023/02/15 03:45:28;;;;;;;1.73;1.50;;;20.10;65.60;;;;;;6188227;23;20499;-68
2023/02/15 03:47:53;;;;;;;2.70;1.52;;;20.00;65.50;;;;;;6187680;23;20032;-67
2023/02/15 03:53:15;;;;;;;1.40;1.30;;;20.00;65.50;;;;;;6212228;23;20027;-68
2023/02/15 03:55:40;;;;;;;2.45;1.50;;;20.00;65.50;;;;;;6187390;23;20008;-68
2023/02/15 04:04:00;;;;;;;1.95;1.52;;;19.90;65.60;;;;;;6212166;23;20012;-67
2023/02/15 04:06:25;;;;;;;2.15;1.70;;;19.90;65.60;;;;;;6187325;23;19997;-67
2023/02/15 04:11:35;;;;;;;2.97;1.40;;;19.80;65.80;;;;;;6213764;23;20015;-68
2023/02/15 04:16:02;;;;;;;1.67;1.58;;;19.80;65.80;;;;;;6213562;23;20079;-67
2023/02/15 04:16:46;;;;;;;3.22;1.60;;;19.70;65.90;;;;;;6212084;23;20437;-68
2023/02/15 04:27:24;;;;;;;2.30;1.38;;;19.60;66.30;;;;;;6214157;23;20057;-68
2023/02/15 04:29:50;;;;;;;2.28;1.55;;;19.70;66.60;;;;;;6212948;23;20001;-68
2023/02/15 04:32:15;;;;;;;3.00;1.40;;;19.60;66.60;;;;;;6213956;23;20001;-68
2023/02/15 04:34:41;;;;;;;1.50;1.30;;;19.60;66.60;;;;;;6213563;23;20001;-68
2023/02/15 04:37:06;;;;;;;2.13;1.35;;;19.60;66.70;;;;;;6214494;23;20001;-68
2023/02/15 04:39:32;;;;;;;3.28;1.45;;;19.50;66.70;;;;;;6214155;23;20377;-67
2023/02/15 04:41:58;;;;;;;2.70;1.30;;;19.50;66.80;;;;;;6212589;23;20424;-68
2023/02/15 04:44:24;;;;;;;2.85;1.42;;;19.50;66.70;;;;;;6214297;23;20024;-68
2023/02/15 04:46:49;;;;;;;1.50;1.40;;;19.50;66.80;;;;;;6212871;23;20024;-68
2023/02/15 04:49:15;;;;;;;1.90;1.70;;;19.50;66.80;;;;;;6214481;23;20432;-67
2023/02/15 04:51:41;;;;;;;2.47;1.63;;;19.40;66.80;;;;;;6214403;23;20008;-68
2023/02/15 04:54:06;;;;;;;4.35;2.20;;;19.40;66.80;;;;;;6214285;23;20004;-68
2023/02/15 04:56:34;;;;;;;1.77;1.50;;;19.40;67.00;;;;;;6187897;23;20039;-68
2023/02/15 04:59:00;;;;;;;1.67;1.50;;;19.40;67.10;;;;;;6215879;23;20000;-68
2023/02/15 05:01:26;;;;;;;1.45;1.35;;;19.30;67.00;;;;;;6189727;23;20007;-68
2023/02/15 05:03:51;;;;;;;2.78;1.40;;;19.30;66.90;;;;;;6216304;23;19996;-68
2023/02/15 05:06:17;;;;;;;1.58;1.33;;;19.30;67.00;;;;;;6215072;23;20011;-68
2023/02/15 05:08:43;;;;;;;2.63;1.17;;;19.30;67.00;;;;;;6214526;23;20008;-68
2023/02/15 05:11:08;;;;;;;1.67;1.40;;;19.20;67.00;;;;;;6216334;23;20007;-68
2023/02/15 05:13:34;;;;;;;3.78;1.50;;;19.20;67.10;;;;;;6216172;23;20051;-68
2023/02/15 05:15:59;;;;;;;2.35;1.48;;;19.20;67.20;;;;;;6214301;23;20001;-67
2023/02/15 05:18:25;;;;;;;1.65;1.35;;;19.20;67.40;;;;;;6215841;23;20008;-68
2023/02/15 05:20:51;;;;;;;1.63;1.48;;;19.20;67.40;;;;;;6214805;23;20005;-67
2023/02/15 05:23:16;;;;;;;1.90;1.30;;;19.20;67.40;;;;;;6214708;23;20333;-67
2023/02/15 05:28:34;;;;;;;2.63;1.38;;;19.10;67.50;;;;;;6214033;23;20070;-67
2023/02/15 05:31:15;;;;;;;3.75;1.70;;;19.10;67.50;;;;;;6189370;23;20004;-67
2023/02/15 05:33:40;;;;;;;3.85;1.27;;;19.10;67.60;;;;;;6214865;23;20319;-68
2023/02/15 05:36:06;;;;;;;1.63;1.35;;;19.10;67.60;;;;;;6214613;23;20000;-67
2023/02/15 05:38:32;;;;;;;1.63;1.38;;;19.00;67.70;;;;;;6213940;23;20019;-67
2023/02/15 05:40:58;;;;;;;2.05;1.33;;;19.00;67.60;;;;;;6214596;23;20063;-68
2023/02/15 05:43:24;;;;;;;2.22;1.52;;;19.00;67.80;;;;;;6214352;23;20425;-67
2023/02/15 05:45:51;;;;;;;1.65;1.45;;;19.00;67.90;;;;;;6214188;23;20008;-67
2023/02/15 05:48:17;;;;;;;4.47;1.17;;;18.90;67.90;;;;;;6189684;23;20336;-68
2023/02/15 05:50:43;;;;;;;1.52;1.42;;;18.90;67.90;;;;;;6189339;23;20083;-68
2023/02/15 05:53:09;;;;;;;1.63;1.50;;;18.90;67.90;;;;;;6189495;23;20028;-68
2023/02/15 05:55:37;;;;;;;1.88;1.33;;;18.90;68.00;;;;;;6215778;23;20004;-67
2023/02/15 05:58:02;;;;;;;1.38;1.27;;;18.90;68.10;;;;;;6189753;23;20067;-67
2023/02/15 06:00:28;;;;;;;2.58;1.88;;;18.90;68.10;;;;;;6215439;23;20028;-67
2023/02/15 06:02:53;;;;;;;2.42;1.60;;;18.90;68.20;;;;;;6215470;23;20028;-67
2023/02/15 06:05:19;;;;;;;3.65;1.48;;;18.80;68.20;;;;;;6214527;23;20043;-67
2023/02/15 06:07:45;;;;;;;2.65;1.30;;;18.80;68.20;;;;;;6214431;23;20007;-68
2023/02/15 06:10:10;;;;;;;2.58;2.03;;;18.80;68.30;;;;;;6214697;23;20075;-67
2023/02/15 06:12:36;;;;;;;1.48;1.35;;;18.80;68.20;;;;;;6214640;23;20000;-67
2023/02/15 06:15:02;;;;;;;1.45;1.30;;;18.80;68.30;;;;;;6212912;23;19996;-68
2023/02/15 06:17:28;;;;;;;2.80;1.15;;;18.80;66.80;;;;;;6185249;23;20004;-68
2023/02/15 06:19:53;;;;;;;2.30;1.20;;;18.80;65.70;;;;;;6213026;23;20008;-68
2023/02/15 06:22:20;;;;;;;2.08;1.27;;;18.80;65.30;;;;;;6214716;23;20001;-68
2023/02/15 06:24:46;;;;;;;1.50;1.40;;;18.70;65.00;;;;;;6213217;23;20445;-68
2023/02/15 06:27:11;;;;;;;1.88;1.58;;;18.70;64.80;;;;;;6213205;23;20065;-68
2023/02/15 06:29:37;;;;;;;2.20;1.30;;;18.70;64.50;;;;;;6214171;23;20020;-68
2023/02/15 06:32:03;;;;;;;1.38;1.35;;;18.70;64.20;;;;;;6214543;23;20011;-67
2023/02/15 06:34:28;;;;;;;1.30;1.20;;;18.70;64.00;;;;;;6212964;23;20345;-67
2023/02/15 06:36:54;;;;;;;1.60;1.50;;;18.60;63.80;;;;;;6214836;23;20079;-68
2023/02/15 06:39:20;;;;;;;3.08;2.47;;;18.60;63.70;;;;;;6213025;23;20012;-68
2023/02/15 06:41:45;;;;;;;5.30;3.67;;;18.50;61.00;;;;;;6214487;23;20303;-68
2023/02/15 06:44:11;;;;;;;6.47;4.22;;;18.20;58.60;;;;;;6214168;23;20317;-68
2023/02/15 06:46:37;;;;;;;5.00;4.03;;;18.00;58.60;;;;;;6187974;23;20005;-68
2023/02/15 06:49:02;;;;;;;4.88;4.38;;;17.80;58.00;;;;;;6214316;23;20040;-68
2023/02/15 06:51:28;;;;;;;7.32;4.80;;;17.60;57.50;;;;;;6213566;23;20005;-68
2023/02/15 06:53:53;;;;;;;5.15;4.57;;;17.50;57.40;;;;;;6212907;23;20012;-68
2023/02/15 06:56:19;;;;;;;5.50;5.00;;;17.40;57.30;;;;;;6213599;23;20000;-68
2023/02/15 06:58:45;;;;;;;10.23;5.60;;;17.30;57.10;;;;;;6213246;23;20015;-68
2023/02/15 07:01:11;;;;;;;6.57;4.90;;;17.20;56.50;;;;;;6211926;23;20004;-68
2023/02/15 07:03:37;;;;;;;5.22;4.72;;;17.20;56.90;;;;;;6214309;23;20029;-67
2023/02/15 07:06:05;;;;;;;10.77;5.68;;;17.10;56.80;;;;;;6214274;23;20485;-67
2023/02/15 07:08:31;;;;;;;8.00;5.72;;;17.00;56.90;;;;;;6186305;23;20080;-67
2023/02/15 07:12:40;;;;;;;9.60;5.63;;;17.00;57.30;;;;;;6214363;23;20453;-66
2023/02/15 07:13:48;;;;;;;13.70;5.78;;;17.00;57.30;;;;;;6213937;23;20005;-67
2023/02/15 07:16:14;;;;;;;14.25;6.40;;;16.90;57.70;;;;;;6213723;23;20015;-66
2023/02/15 07:18:39;;;;;;;9.98;5.50;;;16.90;57.60;;;;;;6211732;23;20032;-67
2023/02/15 07:21:07;;;;;;;12.10;6.45;;;16.80;57.30;;;;;;6211475;23;20044;-66
2023/02/15 07:23:37;;;;;;;8.35;5.95;;;16.80;57.30;;;;;;6213983;23;20005;-66
2023/02/15 07:26:03;;;;;;;13.55;5.43;;;16.70;57.30;;;;;;6211599;23;20008;-67
2023/02/15 07:28:29;;;;;;;10.35;5.53;;;16.70;57.20;;;;;;6212003;23;20020;-66
2023/02/15 07:30:54;;;;;;;10.05;5.53;;;16.60;57.10;;;;;;6212350;23;20009;-66
2023/02/15 07:33:22;;;;;;;9.25;5.63;;;16.60;57.00;;;;;;6214645;23;20005;-66
2023/02/15 07:35:58;;;;;;;7.38;5.57;;;16.50;57.20;;;;;;6213035;23;20072;-66
2023/02/15 07:38:25;;;;;;;9.50;5.20;;;16.50;57.20;;;;;;6214625;23;20095;-66
2023/02/15 07:40:51;;;;;;;6.90;5.65;;;16.60;57.20;;;;;;6187933;23;20434;-67
2023/02/15 07:43:16;;;;;;;7.68;5.60;;;16.50;57.10;;;;;;6213159;23;19997;-66
2023/02/15 07:45:42;;;;;;;8.00;5.28;;;16.50;57.20;;;;;;6213175;23;20029;-66
2023/02/15 07:48:07;;;;;;;9.57;5.70;;;16.40;56.90;;;;;;6214354;23;20000;-66
2023/02/15 07:50:33;;;;;;;8.32;5.65;;;16.40;56.70;;;;;;6213328;23;20016;-66
2023/02/15 07:53:01;;;;;;;6.75;6.00;;;16.30;56.90;;;;;;6213094;23;20449;-66
2023/02/15 07:55:26;;;;;;;6.35;5.20;;;16.30;57.00;;;;;;6212906;23;20007;-66
2023/02/15 07:57:53;;;;;;;10.07;6.13;;;16.20;57.00;;;;;;6212714;23;20342;-66
2023/02/15 08:00:22;;;;;;;7.60;5.03;;;16.20;57.00;;;;;;6213103;23;20035;-66
2023/02/15 08:03:12;;;;;;;8.80;5.72;;;16.10;57.00;;;;;;6213020;23;20071;-66
2023/02/15 08:05:34;;;;;;;7.15;5.70;;;16.00;57.30;;;;;;6213133;23;20433;-66
2023/02/15 08:08:00;;;;;;;6.47;5.45;;;16.00;57.40;;;;;;6214204;23;20015;-66
2023/02/15 08:11:25;;;;;;;8.95;5.43;;;16.00;57.30;;;;;;6214185;23;20004;-67
2023/02/15 08:13:11;;;;;;;8.32;5.47;;;16.00;57.50;;;;;;6212989;23;20008;-66
2023/02/15 08:15:36;;;;;;;7.85;5.13;;;16.00;57.60;;;;;;6212945;23;20080;-66
2023/02/15 08:18:02;;;;;;;7.70;5.13;;;15.90;57.70;;;;;;6212610;23;20080;-66
2023/02/15 08:20:28;;;;;;;10.13;5.60;;;15.90;57.70;;;;;;6212925;23;20388;-67
2023/02/15 08:22:53;;;;;;;6.95;5.10;;;15.90;57.70;;;;;;6214347;23;20016;-66
2023/02/15 08:25:19;;;;;;;6.57;5.10;;;15.90;57.90;;;;;;6214291;23;20425;-66
2023/02/15 08:27:44;;;;;;;8.23;5.30;;;15.90;58.00;;;;;;6214130;23;20040;-66
2023/02/15 08:30:11;;;;;;;8.88;5.10;;;15.80;58.40;;;;;;6214434;23;20087;-66
2023/02/15 08:32:37;;;;;;;8.80;5.10;;;15.80;58.30;;;;;;6213896;23;19996;-66
2023/02/15 08:35:02;;;;;;;7.15;5.50;;;15.80;58.40;;;;;;6216296;23;20058;-66
2023/02/15 08:37:28;;;;;;;8.43;5.43;;;15.70;58.60;;;;;;6216697;23;20000;-66
2023/02/15 08:39:54;;;;;;;10.10;5.80;;;15.70;58.70;;;;;;6215862;23;20417;-66
2023/02/15 08:42:20;;;;;;;6.03;5.10;;;15.80;58.80;;;;;;6216598;23;20001;-66
2023/02/15 08:44:46;;;;;;;7.57;5.47;;;15.70;58.90;;;;;;6216331;23;20000;-66
2023/02/15 08:47:12;;;;;;;10.07;5.05;;;15.70;58.80;;;;;;6216255;23;20060;-66
2023/02/15 08:49:37;;;;;;;8.18;5.30;;;15.70;58.90;;;;;;6214900;23;20007;-66
2023/02/15 08:52:03;;;;;;;5.82;5.22;;;15.70;59.00;;;;;;6216216;23;20070;-66
2023/02/15 08:54:29;;;;;;;8.52;5.20;;;15.70;59.00;;;;;;6216099;23;20337;-66
2023/02/15 08:56:54;;;;;;;7.05;5.90;;;15.70;58.90;;;;;;6216124;23;20122;-66
2023/02/15 08:59:22;;;;;;;8.23;5.20;;;15.70;58.60;;;;;;6214844;23;20001;-66
2023/02/15 09:01:48;;;;;;;7.18;5.10;;;15.70;58.80;;;;;;6189910;23;20318;-66
2023/02/15 09:04:15;;;;;;;10.70;5.13;;;15.60;59.80;;;;;;6216206;23;19996;-66
2023/02/15 09:06:41;;;;;;;5.55;4.38;;;15.70;58.80;;;;;;6190095;23;20001;-66
2023/02/15 09:09:07;;;;;;;6.78;4.82;;;15.70;59.00;;;;;;6189151;23;20028;-66
2023/02/15 09:11:40;;;;;;;6.18;4.55;;;15.70;59.10;;;;;;6216421;23;20059;-66
2023/02/15 09:14:15;;;;;;;6.78;4.90;;;15.60;59.20;;;;;;6214422;23;20463;-66
2023/02/15 09:16:44;;;;;;;5.15;4.65;;;15.60;59.20;;;;;;6190719;23;20341;-66
2023/02/15 09:19:10;;;;;;;8.10;5.03;;;15.60;59.10;;;;;;6214242;23;20062;-66
2023/02/15 09:21:36;;;;;;;7.40;4.93;;;15.50;59.10;;;;;;6216222;23;20067;-66
2023/02/15 09:24:04;;;;;;;6.65;5.65;;;15.60;59.30;;;;;;6189152;23;20008;-66
2023/02/15 09:26:30;;;;;;;8.10;5.10;;;15.60;59.40;;;;;;6216045;23;20004;-66
2023/02/15 09:28:58;;;;;;;7.38;5.32;;;15.50;59.30;;;;;;6215552;23;20009;-66
2023/02/15 09:31:25;;;;;;;9.30;5.00;;;15.60;59.40;;;;;;6215972;23;20080;-66
2023/02/15 09:33:51;;;;;;;8.43;5.30;;;15.60;59.60;;;;;;6214242;23;20005;-66
2023/02/15 09:36:27;;;;;;;8.15;4.80;;;15.60;59.60;;;;;;6214501;23;20325;-66
2023/02/15 09:39:17;;;;;;;6.68;4.45;;;15.60;59.70;;;;;;6190397;23;20053;-66
2023/02/15 09:41:51;;;;;;;6.68;5.00;;;15.60;59.70;;;;;;6213815;23;20023;-66
2023/02/15 09:44:32;;;;;;;6.50;5.15;;;15.60;60.00;;;;;;6215194;23;20000;-66
2023/02/15 09:47:12;;;;;;;6.72;5.00;;;15.60;60.00;;;;;;6215779;23;20001;-66
2023/02/15 09:50:09;;;;;;;6.65;4.82;;;15.60;60.00;;;;;;6214413;23;20005;-66
2023/02/15 09:52:49;;;;;;;5.95;5.05;;;15.60;60.00;;;;;;6215211;23;20453;-66
2023/02/15 09:55:23;;;;;;;6.60;5.15;;;15.60;59.90;;;;;;6215475;23;20001;-66
2023/02/15 09:57:52;;;;;;;6.75;5.05;;;15.60;60.00;;;;;;6215538;23;20001;-66
2023/02/15 10:00:39;;;;;;;6.95;5.10;;;15.60;59.80;;;;;;6215696;23;19997;-66
2023/02/15 10:03:08;;;;;;;6.95;4.78;;;15.60;59.80;;;;;;6213844;23;20039;-66
2023/02/15 10:05:58;;;;;;;5.43;4.65;;;15.60;60.00;;;;;;6215515;23;20001;-66
2023/02/15 10:09:02;;;;;;;7.88;5.22;;;15.60;60.00;;;;;;6215534;23;20005;-66
2023/02/15 10:11:39;;;;;;;6.53;4.72;;;15.60;60.00;;;;;;6215380;23;20445;-66
2023/02/15 10:14:07;;;;;;;5.63;4.35;;;15.60;59.80;;;;;;6215330;23;20432;-67
2023/02/15 10:16:46;;;;;;;6.63;4.72;;;15.60;59.90;;;;;;6215323;23;20560;-66
2023/02/15 10:19:24;;;;;;;5.30;4.80;;;15.60;60.10;;;;;;6213672;23;20008;-66
2023/02/15 10:21:58;;;;;;;5.80;4.40;;;15.60;60.00;;;;;;6213867;23;20000;-67
2023/02/15 10:24:45;;;;;;;5.35;4.85;;;15.60;60.10;;;;;;6214059;23;20059;-66
2023/02/15 10:27:20;;;;;;;6.97;5.15;;;15.60;60.10;;;;;;6213910;23;20031;-66
2023/02/15 10:29:52;;;;;;;6.13;4.72;;;15.60;60.30;;;;;;6189401;23;20083;-66
2023/02/15 10:32:29;;;;;;;5.25;4.13;;;15.60;60.50;;;;;;6213781;23;20088;-66
2023/02/15 10:35:01;;;;;;;4.80;4.10;;;15.70;60.50;;;;;;6213690;23;20005;-66
2023/02/15 10:37:43;;;;;;;4.65;4.25;;;15.70;60.70;;;;;;6188697;23;20326;-66
2023/02/15 10:40:46;;;;;;;8.30;4.30;;;15.70;60.50;;;;;;6213550;23;20076;-66
2023/02/15 10:43:32;;;;;;;5.80;4.00;;;15.70;60.50;;;;;;6215046;23;20080;-66
2023/02/15 10:46:16;;;;;;;4.47;3.95;;;15.70;60.50;;;;;;6215089;23;20418;-66
2023/02/15 10:49:01;;;;;;;4.93;3.90;;;15.70;60.60;;;;;;6215320;23;20083;-66
2023/02/15 10:51:36;;;;;;;4.95;3.50;;;15.70;60.60;;;;;;6213731;23;20341;-66
2023/02/15 10:54:26;;;;;;;5.80;3.72;;;15.70;61.00;;;;;;6214835;23;20028;-66
2023/02/15 10:57:24;;;;;;;4.50;3.80;;;15.80;60.80;;;;;;6214633;23;20028;-66
2023/02/15 11:00:18;;;;;;;3.60;3.30;;;15.80;60.90;;;;;;6213790;23;20036;-66
2023/02/15 11:03:03;;;;;;;5.18;3.20;;;15.80;61.30;;;;;;6210854;23;20503;-66
2023/02/15 11:06:02;;;;;;;4.78;3.47;;;15.80;61.00;;;;;;6214728;23;20079;-66
2023/02/15 11:08:29;;;;;;;3.55;3.22;;;15.90;61.00;;;;;;6214790;23;20004;-66
2023/02/15 11:11:01;;;;;;;4.03;3.33;;;15.90;60.70;;;;;;6213543;23;20005;-66
2023/02/15 11:13:28;;;;;;;4.55;3.17;;;15.90;60.60;;;;;;6213524;23;20030;-66
2023/02/15 11:15:59;;;;;;;3.67;3.00;;;15.90;60.50;;;;;;6213452;23;20013;-66
2023/02/15 11:18:32;;;;;;;3.45;3.10;;;15.90;60.70;;;;;;6212967;23;20502;-66
2023/02/15 11:21:14;;;;;;;4.05;2.83;;;15.90;60.70;;;;;;6213506;23;20020;-66
2023/02/15 11:23:47;;;;;;;5.13;2.78;;;15.90;60.40;;;;;;6190088;23;20005;-66
2023/02/15 11:26:20;;;;;;;4.60;2.80;;;15.90;60.40;;;;;;6189005;23;20058;-67
2023/02/15 11:29:12;;;;;;;3.47;2.75;;;15.90;60.20;;;;;;5069622;28;20383;-67
2023/02/15 11:31:46;;;;;;;3.88;2.88;;;16.00;60.10;;;;;;5068614;28;20048;-67
2023/02/15 11:34:44;;;;;;;5.05;2.65;;;16.00;60.20;;;;;;5068111;28;20017;-68
2023/02/15 11:37:16;;;;;;;3.67;2.83;;;16.00;60.00;;;;;;5068311;28;20056;-67
2023/02/15 11:39:41;;;;;;;3.03;2.63;;;16.00;60.10;;;;;;5069520;28;20025;-67
2023/02/15 11:42:15;;;;;;;3.47;2.60;;;16.00;60.00;;;;;;5068096;28;20032;-67
2023/02/15 11:44:49;;;;;;;3.08;2.42;;;16.00;59.90;;;;;;5051715;28;20025;-65
2023/02/15 11:47:15;;;;;;;3.67;2.53;;;16.10;59.80;;;;;;5068722;28;20055;-67
2023/02/15 11:49:41;;;;;;;3.33;2.00;;;16.00;59.70;;;;;;5069280;28;20483;-67
2023/02/15 11:52:16;;;;;;;2.70;2.28;;;16.10;59.90;;;;;;5068996;28;20125;-67
2023/02/15 11:54:46;;;;;;;3.22;2.22;;;16.10;59.90;;;;;;5067997;28;20024;-67
2023/02/15 11:57:14;;;;;;;2.28;2.03;;;16.10;60.10;;;;;;5067729;28;20475;-67
2023/02/15 11:59:42;;;;;;;4.53;2.42;;;16.10;59.90;;;;;;5067984;28;20021;-67
2023/02/15 12:02:19;;;;;;;3.35;2.17;;;16.10;59.70;;;;;;5067621;28;20111;-67
2023/02/15 12:04:54;;;;;;;4.55;2.38;;;16.20;59.60;;;;;;5068929;28;20017;-67
2023/02/15 12:07:45;;;;;;;3.70;2.03;;;16.20;59.10;;;;;;5067544;28;20051;-67
2023/02/15 12:10:22;;;;;;;4.47;2.00;;;16.20;59.20;;;;;;5067435;28;20012;-67
2023/02/15 12:12:47;;;;;;;4.10;1.92;;;16.20;59.40;;;;;;5067930;28;20024;-67
2023/02/15 12:15:13;;;;;;;4.45;2.10;;;16.30;58.80;;;;;;5068502;28;20024;-67
2023/02/15 12:17:39;;;;;;;3.05;2.00;;;16.30;58.90;;;;;;5067474;28;20032;-67
2023/02/15 12:20:28;;;;;;;2.35;1.98;;;16.30;59.30;;;;;;5068795;28;20051;-67
2023/02/15 12:23:03;;;;;;;2.65;2.03;;;16.30;58.70;;;;;;5067591;28;20028;-67
2023/02/15 12:25:41;;;;;;;2.78;1.75;;;16.30;58.70;;;;;;5067354;28;20021;-67
2023/02/15 12:28:31;;;;;;;3.58;2.00;;;16.30;58.70;;;;;;5055867;28;20056;-67
2023/02/15 12:30:57;;;;;;;3.50;1.90;;;16.40;59.10;;;;;;5048422;28;20487;-67
2023/02/15 12:33:38;;;;;;;2.30;1.70;;;16.40;59.00;;;;;;5047285;28;20047;-67
2023/02/15 12:36:12;;;;;;;3.00;1.67;;;16.40;58.70;;;;;;5047274;28;20516;-67
2023/02/15 12:38:38;;;;;;;3.38;1.50;;;16.40;58.50;;;;;;5042883;28;20026;-67
2023/02/15 12:41:23;;;;;;;1.83;1.65;;;16.50;58.60;;;;;;5033993;28;20032;-67
2023/02/15 12:43:50;;;;;;;3.08;1.40;;;16.50;58.20;;;;;;5035111;28;20018;-67
2023/02/15 12:46:23;;;;;;;3.05;1.55;;;16.50;58.60;;;;;;5033448;28;20116;-67
2023/02/15 12:49:17;;;;;;;2.00;1.50;;;16.50;58.60;;;;;;5044424;28;20021;-67
2023/02/15 12:51:50;;;;;;;3.25;1.50;;;16.50;58.70;;;;;;5054957;28;20072;-67
2023/02/15 12:54:25;;;;;;;1.90;1.63;;;16.60;58.50;;;;;;5053538;28;20059;-67
2023/02/15 12:56:51;;;;;;;4.15;1.70;;;16.60;58.70;;;;;;5054806;28;20079;-67
2023/02/15 12:59:19;;;;;;;3.65;1.50;;;16.60;58.50;;;;;;5053411;28;20025;-67
2023/02/15 13:01:45;;;;;;;3.45;1.50;;;16.70;58.50;;;;;;5053464;28;20025;-67
2023/02/15 13:04:28;;;;;;;2.55;1.52;;;16.70;58.30;;;;;;5036816;28;20384;-67
2023/02/15 13:06:59;;;;;;;1.92;1.30;;;16.70;58.40;;;;;;5053512;28;20029;-67
2023/02/15 13:09:31;;;;;;;2.38;1.40;;;16.80;58.20;;;;;;5036720;28;20048;-67
2023/02/15 13:12:03;;;;;;;4.43;1.60;;;16.80;58.10;;;;;;5054409;28;20495;-67
2023/02/15 13:14:31;;;;;;;1.85;1.30;;;16.80;58.20;;;;;;5037352;28;20028;-67
2023/02/15 13:17:00;;;;;;;3.20;1.50;;;16.80;58.10;;;;;;5036698;28;20057;-67
2023/02/15 13:19:34;;;;;;;1.45;1.25;;;16.80;58.40;;;;;;5036892;28;20031;-67
2023/02/15 13:22:02;;;;;;;1.48;1.13;;;16.80;57.40;;;;;;5036584;28;20025;-67
2023/02/15 13:24:44;;;;;;;3.15;1.50;;;16.90;57.70;;;;;;5036569;28;20017;-67
2023/02/15 13:27:15;;;;;;;2.10;1.27;;;16.90;57.10;;;;;;5049529;28;20033;-67
2023/02/15 13:29:46;;;;;;;1.85;1.33;;;16.90;57.50;;;;;;5034125;28;20025;-67
2023/02/15 13:32:25;;;;;;;4.40;1.50;;;16.90;57.10;;;;;;5033155;28;20021;-67